createdAt,value
2023-05-12T11:18:20.590Z,3.3333
2023-05-12T11:19:22.366Z,13.4615
2023-05-12T11:20:24.322Z,34.6154
2023-05-12T11:21:26.224Z,44.3077
2023-05-12T11:22:28.253Z,49.8462
2023-05-12T11:46:50.653Z,0.0000
2023-05-12T11:47:52.566Z,1.1538
2023-05-12T11:48:54.447Z,0.0000
2023-05-12T11:49:56.424Z,2.0769
2023-05-12T11:50:58.289Z,3.6923
2023-05-12T11:52:00.190Z,2.8462
2023-05-12T11:53:02.129Z,12.0769
2023-05-12T11:54:04.041Z,24.5385
2023-05-12T11:55:06.189Z,18.3077
2023-05-12T11:56:07.897Z,17.0000
2023-05-12T11:57:09.800Z,18.4615
2023-05-12T11:58:11.725Z,17.3846
2023-05-12T11:59:13.655Z,36.7692
2023-05-12T12:00:15.574Z,38.5385
2023-05-12T12:01:17.600Z,34.0769
2023-05-12T12:02:19.466Z,28.9231
2023-05-12T12:03:21.481Z,28.6154
2023-05-12T12:04:23.285Z,32.8462
2023-05-12T12:05:25.177Z,30.8462
2023-05-12T12:06:27.159Z,29.6154
2023-05-12T12:07:29.000Z,25.5385
2023-05-12T12:08:30.941Z,27.3846
2023-05-12T12:09:32.850Z,24.2308
2023-05-12T12:10:34.751Z,39.6154
2023-05-12T12:11:36.667Z,39.4615
2023-05-12T12:12:38.752Z,38.6923
2023-05-12T12:13:40.506Z,43.2308
2023-05-12T12:14:42.467Z,29.7692
2023-05-12T12:15:44.376Z,26.0769
2023-05-12T12:16:46.270Z,30.0769
2023-05-12T12:17:48.475Z,29.1538
2023-05-12T12:18:50.139Z,23.3077
2023-05-12T12:19:52.020Z,20.6923
2023-05-12T12:20:53.951Z,21.0000
2023-05-12T12:21:55.866Z,25.5385
2023-05-12T12:22:57.782Z,23.0769
2023-05-12T12:23:59.808Z,16.1538
2023-05-12T12:25:01.605Z,11.0769
2023-05-12T12:26:03.544Z,18.0000
2023-05-12T12:27:05.454Z,40.5385
2023-05-12T12:28:07.369Z,36.0000
2023-05-12T12:29:09.291Z,37.2308
2023-05-12T12:30:11.433Z,34.3846
2023-05-12T12:31:13.113Z,30.8462
2023-05-12T12:32:15.056Z,32.1538
2023-05-12T12:33:19.649Z,36.3077
2023-05-12T12:34:18.868Z,49.3077
2023-05-12T12:35:21.019Z,43.6154
2023-05-12T12:36:22.846Z,40.6923
2023-05-12T12:37:24.634Z,44.0769
2023-05-12T12:38:26.546Z,42.1538
2023-05-12T12:39:28.480Z,37.9231
2023-05-12T12:40:30.392Z,35.0769
2023-05-12T12:41:32.305Z,28.6923
2023-05-12T12:42:34.369Z,21.6923
2023-05-12T12:43:36.144Z,17.1538
2023-05-12T12:44:38.064Z,16.0000
2023-05-12T12:45:39.996Z,12.1538
2023-05-12T12:46:41.957Z,9.1538
2023-05-12T12:47:43.869Z,12.3846
2023-05-12T12:48:45.860Z,10.3077
2023-05-12T12:49:47.665Z,5.7692
2023-05-12T12:50:49.592Z,1.0769
2023-05-12T12:51:51.510Z,2.3846
2023-05-12T12:52:53.440Z,3.3077
2023-05-12T12:53:55.349Z,3.0769
2023-05-12T12:54:57.365Z,1.8462
2023-05-12T12:55:59.173Z,0.6154
2023-05-12T12:57:01.105Z,3.1538
2023-05-12T12:58:03.011Z,4.5385
2023-05-12T12:59:04.947Z,6.0000
2023-05-12T13:00:06.970Z,24.3846
2023-05-12T13:01:08.808Z,46.1538
2023-05-12T13:02:10.723Z,45.4615
2023-05-12T13:03:12.638Z,37.9231
2023-05-12T13:04:14.519Z,30.9231
2023-05-12T13:05:16.515Z,27.4615
2023-05-12T13:06:18.474Z,29.8462
2023-05-12T13:07:20.275Z,32.7692
2023-05-12T13:08:22.204Z,29.0000
2023-05-12T13:09:24.122Z,20.3077
2023-05-12T13:10:26.048Z,16.1538
2023-05-12T13:11:28.068Z,13.9231
2023-05-12T13:12:29.873Z,10.6154
2023-05-12T13:13:31.781Z,8.2308
2023-05-12T13:14:33.706Z,3.6154
2023-05-12T13:15:35.621Z,5.8462
2023-05-12T13:16:37.557Z,5.9231
2023-05-12T13:17:39.588Z,4.7692
2023-05-12T13:18:41.425Z,2.7692
2023-05-12T13:19:43.302Z,4.7692
2023-05-12T13:20:45.233Z,2.7692
2023-05-12T13:21:47.137Z,6.6154
2023-05-12T13:22:49.062Z,9.5385
2023-05-12T13:23:51.127Z,6.4615
2023-05-12T13:24:52.899Z,7.6154
2023-05-12T13:25:54.800Z,7.6923
2023-05-12T13:26:56.745Z,8.6154
2023-05-12T13:27:58.640Z,7.6154
2023-05-12T13:29:00.567Z,30.1538
2023-05-12T13:30:02.597Z,7.5385
2023-05-12T13:31:04.438Z,5.7692
2023-05-12T13:32:06.323Z,5.0000
2023-05-12T13:33:08.307Z,6.6923
2023-05-12T13:34:10.169Z,11.7692
2023-05-12T13:35:12.071Z,12.5385
2023-05-12T13:36:14.104Z,10.0769
2023-05-12T13:37:15.922Z,12.5385
2023-05-12T13:38:17.831Z,10.6923
2023-05-12T13:39:19.911Z,10.2308
2023-05-12T13:40:21.659Z,15.6923
2023-05-12T13:41:23.626Z,17.9231
2023-05-12T13:42:25.608Z,20.5385
2023-05-12T13:43:27.431Z,22.3846
2023-05-12T13:44:29.332Z,20.0769
2023-05-12T13:45:31.270Z,21.0769
2023-05-12T13:46:33.225Z,29.9231
2023-05-12T13:47:35.137Z,19.3077
2023-05-12T13:48:37.159Z,22.5385
2023-05-12T13:49:38.929Z,23.3846
2023-05-12T13:50:40.859Z,18.3077
2023-05-12T13:51:42.768Z,17.3077
2023-05-12T13:52:44.669Z,15.6154
2023-05-12T13:53:46.607Z,24.6154
2023-05-12T13:54:48.625Z,23.9231
2023-05-12T13:55:50.500Z,23.0769
2023-05-12T13:56:52.335Z,21.6923
2023-05-12T13:57:54.250Z,24.0769
2023-05-12T13:58:56.191Z,21.3846
2023-05-12T13:59:58.219Z,18.7692
2023-05-12T14:01:00.007Z,23.4615
2023-05-12T14:02:02.099Z,18.3846
2023-05-12T14:03:03.904Z,28.9231
2023-05-12T14:04:05.781Z,32.4615
2023-05-12T14:05:07.797Z,58.3077
2023-05-12T14:06:09.731Z,60.1538
2023-05-12T14:07:11.525Z,52.8462
2023-05-12T14:08:13.426Z,45.4615
2023-05-12T14:09:15.372Z,33.7692
2023-05-12T14:10:17.272Z,32.0769
2023-05-12T14:11:19.266Z,33.3846
2023-05-12T14:12:21.739Z,35.3846
2023-05-12T14:13:23.021Z,40.3846
2023-05-12T14:14:24.962Z,35.1538
2023-05-12T14:15:40.103Z,40.4615
2023-05-12T14:16:28.804Z,31.8462
2023-05-12T14:17:30.863Z,22.2308
2023-05-12T14:18:32.661Z,19.2308
2023-05-12T14:19:34.547Z,25.5385
2023-05-12T14:20:36.451Z,25.5385
2023-05-12T14:21:38.392Z,19.9231
2023-05-12T14:22:40.307Z,15.2308
2023-05-12T14:23:42.335Z,27.6923
2023-05-12T14:24:44.127Z,49.8462
2023-05-12T14:25:46.070Z,33.3077
2023-05-12T14:26:48.048Z,22.0000
2023-05-12T14:27:50.123Z,10.2308
2023-05-12T14:28:51.820Z,9.0769
2023-05-12T14:29:53.898Z,3.3846
2023-05-12T14:30:55.673Z,1.3846
2023-05-12T14:31:57.638Z,1.3846
2023-05-12T14:32:59.528Z,1.1538
2023-05-12T14:34:01.436Z,2.0769
2023-05-12T14:35:03.335Z,1.3077
2023-05-12T14:36:07.831Z,0.0769
2023-05-12T14:37:07.283Z,6.5385
2023-05-12T14:38:09.106Z,9.1538
2023-05-12T14:39:11.028Z,14.9231
2023-05-12T14:40:12.924Z,4.2308
2023-05-12T14:41:14.858Z,5.9231
2023-05-12T14:42:16.870Z,5.0769
2023-05-12T14:43:18.700Z,8.3846
2023-05-12T14:44:20.625Z,8.0000
2023-05-12T14:45:22.848Z,8.5385
2023-05-12T14:46:24.472Z,7.6154
2023-05-12T14:47:26.383Z,8.5385
2023-05-12T14:48:28.385Z,7.3077
2023-05-12T14:49:30.241Z,11.3077
2023-05-12T14:50:32.135Z,13.3846
2023-05-12T14:51:34.042Z,13.9231
2023-05-12T14:52:35.956Z,14.6154
2023-05-12T14:53:37.976Z,12.3077
2023-05-12T14:54:39.812Z,10.0000
2023-05-12T14:55:41.728Z,8.4615
2023-05-12T14:56:43.671Z,14.8462
2023-05-12T14:57:45.552Z,13.9231
2023-05-12T14:58:47.474Z,14.0000
2023-05-12T14:59:49.503Z,14.7692
2023-05-12T15:00:51.354Z,17.5385
2023-05-12T15:01:53.247Z,16.5385
2023-05-12T15:02:55.233Z,17.0769
2023-05-12T15:03:57.068Z,13.6923
2023-05-12T15:04:59.097Z,10.4615
2023-05-12T15:07:02.845Z,10.0000
2023-05-12T15:08:04.761Z,7.9231
2023-05-12T15:09:06.681Z,5.0000
2023-05-12T15:10:08.599Z,5.3077
2023-05-12T15:11:10.605Z,6.0000
2023-05-12T15:12:12.467Z,4.6154
2023-05-12T15:13:14.365Z,5.1538
2023-05-12T15:14:16.291Z,5.2308
2023-05-12T15:15:18.355Z,6.6154
2023-05-12T15:16:20.265Z,7.3846
2023-05-12T15:17:22.057Z,6.7692
2023-05-12T15:18:24.058Z,5.0769
2023-05-12T15:19:25.904Z,5.8462
2023-05-12T15:20:27.814Z,8.7692
2023-05-12T15:21:29.744Z,7.3846
2023-05-12T15:22:31.669Z,6.5385
2023-05-12T15:23:33.576Z,7.6923
2023-05-12T15:24:35.482Z,5.0000
2023-05-12T15:25:37.409Z,2.6154
2023-05-12T15:26:40.249Z,2.9231
2023-05-12T15:27:41.254Z,8.9231
2023-05-12T15:28:43.178Z,8.0000
2023-05-12T15:29:45.079Z,6.0000
2023-05-12T15:30:47.025Z,9.3846
2023-05-12T15:31:49.028Z,10.6923
2023-05-12T15:32:50.881Z,9.9231
2023-05-12T15:33:52.794Z,4.6923
2023-05-12T15:34:54.762Z,5.7692
2023-05-12T15:35:56.604Z,8.8462
2023-05-12T15:36:58.541Z,7.7692
2023-05-12T15:38:00.466Z,10.7692
2023-05-12T15:39:02.427Z,9.0000
2023-05-12T15:40:04.313Z,11.3846
2023-05-12T15:41:06.216Z,17.8462
2023-05-12T15:42:08.539Z,10.4615
2023-05-12T15:43:10.054Z,9.4615
2023-05-12T15:44:11.969Z,13.9231
2023-05-12T15:45:13.899Z,15.4615
2023-05-12T15:46:15.835Z,13.3077
2023-05-12T15:47:17.721Z,16.2308
2023-05-12T15:48:19.691Z,14.9231
2023-05-12T15:49:21.639Z,15.1538
2023-05-12T15:50:23.550Z,12.9231
2023-05-12T15:51:25.485Z,16.8462
2023-05-12T15:52:27.405Z,15.6154
2023-05-12T15:53:29.322Z,19.3077
2023-05-12T15:54:31.264Z,16.4615
2023-05-12T15:55:33.169Z,18.9231
2023-05-12T15:56:35.087Z,14.6154
2023-05-12T15:57:36.998Z,19.0000
2023-05-12T15:58:38.933Z,21.6923
2023-05-12T15:59:40.859Z,19.5385
2023-05-12T16:00:42.795Z,24.0769
2023-05-12T16:01:44.683Z,23.6923
2023-05-12T16:02:46.670Z,22.3077
2023-05-12T16:03:48.575Z,15.3077
2023-05-12T16:04:50.462Z,21.3077
2023-05-12T16:05:52.361Z,18.6154
2023-05-12T16:06:54.359Z,22.6923
2023-05-12T16:07:56.188Z,21.0000
2023-05-12T16:08:58.125Z,25.0769
2023-05-12T16:10:00.065Z,23.6923
2023-05-12T16:11:01.990Z,27.9231
2023-05-12T16:12:03.888Z,28.5385
2023-05-12T16:13:05.789Z,27.9231
2023-05-12T16:14:07.711Z,25.7692
2023-05-12T16:15:09.659Z,25.6154
2023-05-12T16:16:11.572Z,26.3846
2023-05-12T16:17:13.491Z,27.3846
2023-05-12T16:18:15.450Z,25.0769
2023-05-12T16:19:17.314Z,25.0769
2023-05-12T16:20:19.248Z,25.0000
2023-05-12T16:21:21.170Z,22.2308
2023-05-12T16:22:23.090Z,23.1538
2023-05-12T16:23:25.001Z,25.5385
2023-05-12T16:24:26.911Z,25.0769
2023-05-12T16:25:28.844Z,24.7692
2023-05-12T16:26:30.768Z,25.8462
2023-05-12T16:27:32.681Z,28.0000
2023-05-12T16:28:34.609Z,28.6923
2023-05-12T16:29:36.534Z,23.3077
2023-05-12T16:30:38.458Z,22.3846
2023-05-12T16:31:40.402Z,27.7692
2023-05-12T16:32:42.334Z,28.5385
2023-05-12T16:33:44.217Z,25.9231
2023-05-12T16:34:46.124Z,26.0000
2023-05-12T16:35:48.044Z,23.8462
2023-05-12T16:36:49.964Z,24.8462
2023-05-12T16:37:51.898Z,21.2308
2023-05-12T16:38:53.836Z,18.8462
2023-05-12T16:39:55.728Z,16.6154
2023-05-12T16:40:57.657Z,18.7692
2023-05-12T16:41:59.574Z,20.0769
2023-05-12T16:43:01.505Z,19.0769
2023-05-12T16:44:03.428Z,16.1538
2023-05-12T16:45:05.360Z,18.7692
2023-05-12T16:46:07.281Z,13.0000
2023-05-12T16:47:09.186Z,15.5385
2023-05-12T16:48:11.121Z,19.5385
2023-05-12T16:49:13.039Z,21.3846
2023-05-12T16:50:14.959Z,20.5385
2023-05-12T16:51:16.877Z,21.8462
2023-05-12T16:52:18.792Z,21.9231
2023-05-12T16:53:20.712Z,19.6154
2023-05-12T16:54:22.798Z,20.0769
2023-05-12T16:55:24.538Z,19.0769
2023-05-12T16:56:26.512Z,18.0769
2023-05-12T16:57:28.396Z,21.3077
2023-05-12T16:58:30.316Z,18.3846
2023-05-12T16:59:32.240Z,19.6923
2023-05-12T17:00:34.140Z,17.4615
2023-05-12T17:01:36.169Z,17.0000
2023-05-12T17:02:38.058Z,21.7692
2023-05-12T17:03:40.030Z,18.6154
2023-05-12T17:04:41.808Z,16.3077
2023-05-12T17:05:43.730Z,15.9231
2023-05-12T17:06:45.654Z,17.4615
2023-05-12T17:07:47.622Z,16.1538
2023-05-12T17:08:49.518Z,18.3846
2023-05-12T17:09:51.426Z,17.9231
2023-05-12T17:10:53.342Z,13.3077
2023-05-12T17:11:55.251Z,11.8462
2023-05-12T17:12:57.185Z,15.8462
2023-05-12T17:13:59.119Z,15.9231
2023-05-12T17:15:07.638Z,16.3846
2023-05-12T17:16:02.972Z,13.1538
2023-05-12T17:17:04.886Z,14.0000
2023-05-12T17:18:06.884Z,16.5385
2023-05-12T17:20:10.616Z,18.2308
2023-05-12T17:21:12.542Z,19.1538
2023-05-12T17:22:14.466Z,18.0769
2023-05-12T17:23:16.382Z,17.4615
2023-05-12T17:24:18.294Z,15.5385
2023-05-12T17:25:20.426Z,21.0769
2023-05-12T17:26:22.143Z,20.9231
2023-05-12T17:27:24.067Z,21.7692
2023-05-12T17:28:25.982Z,19.5385
2023-05-12T17:29:27.886Z,22.1538
2023-05-12T17:30:29.804Z,22.2308
2023-05-12T17:31:31.790Z,23.5385
2023-05-12T17:32:33.726Z,22.1538
2023-05-12T17:33:35.578Z,20.5385
2023-05-12T17:34:37.496Z,20.1538
2023-05-12T17:35:39.416Z,22.3077
2023-05-12T17:36:41.324Z,19.3846
2023-05-12T17:37:43.281Z,21.1538
2023-05-12T17:38:45.183Z,23.6923
2023-05-12T17:39:47.084Z,18.8462
2023-05-12T17:40:49.012Z,21.7692
2023-05-12T17:41:50.933Z,18.4615
2023-05-12T17:42:52.966Z,21.9231
2023-05-12T17:43:54.770Z,15.2308
2023-05-12T17:44:56.699Z,14.0769
2023-05-12T17:45:58.599Z,15.3846
2023-05-12T17:47:00.542Z,16.1538
2023-05-12T17:48:02.517Z,18.3077
2023-05-12T17:49:04.371Z,16.3846
2023-05-12T17:50:06.295Z,14.0000
2023-05-12T17:51:08.198Z,14.1538
2023-05-12T17:52:10.117Z,9.1538
2023-05-12T17:53:12.033Z,12.0769
2023-05-12T17:54:13.954Z,12.0000
2023-05-12T17:55:15.873Z,10.6923
2023-05-12T17:56:17.809Z,10.6154
2023-05-12T17:57:19.704Z,12.7692
2023-05-12T17:58:21.628Z,11.0000
2023-05-12T17:59:23.551Z,11.6154
2023-05-12T18:00:25.462Z,10.3846
2023-05-12T18:01:27.469Z,8.0000
2023-05-12T18:02:29.452Z,10.0769
2023-05-12T18:03:31.266Z,11.1538
2023-05-12T18:04:33.153Z,6.3846
2023-05-12T18:05:36.506Z,8.3846
2023-05-12T18:06:36.989Z,12.6154
2023-05-12T18:07:38.908Z,15.2308
2023-05-12T18:08:40.834Z,14.9231
2023-05-12T18:09:42.730Z,14.7692
2023-05-12T18:10:44.663Z,16.6923
2023-05-12T18:11:46.587Z,18.1538
2023-05-12T18:12:48.511Z,17.7692
2023-05-12T18:13:50.403Z,13.6923
2023-05-12T18:14:52.337Z,14.6923
2023-05-12T18:15:54.266Z,16.6923
2023-05-12T18:16:56.230Z,13.3846
2023-05-12T18:17:58.118Z,14.4615
2023-05-12T18:19:00.014Z,15.4615
2023-05-12T18:20:01.920Z,19.5385
2023-05-12T18:21:03.857Z,20.4615
2023-05-12T18:22:05.746Z,21.3846
2023-05-12T18:23:07.685Z,22.4615
2023-05-12T18:24:09.576Z,18.6923
2023-05-12T18:25:11.508Z,16.6923
2023-05-12T18:26:13.464Z,17.7692
2023-05-12T18:27:15.362Z,18.0000
2023-05-12T18:28:17.254Z,19.6154
2023-05-12T18:29:19.170Z,17.4615
2023-05-12T18:30:21.113Z,17.0000
2023-05-12T18:31:23.046Z,15.8462
2023-05-12T18:32:26.312Z,17.8462
2023-05-12T18:33:26.857Z,16.6154
2023-05-12T18:34:28.754Z,15.0000
2023-05-12T18:35:30.676Z,16.0000
2023-05-12T18:36:32.620Z,15.6923
2023-05-12T18:37:34.522Z,16.6154
2023-05-12T18:38:36.454Z,14.6923
2023-05-12T18:39:38.372Z,16.7692
2023-05-12T18:40:40.270Z,16.6923
2023-05-12T18:41:42.180Z,18.6154
2023-05-12T18:42:44.158Z,11.3077
2023-05-12T18:43:46.048Z,15.3077
2023-05-12T18:44:47.943Z,18.1538
2023-05-12T18:45:49.871Z,13.4615
2023-05-12T18:46:51.839Z,18.1538
2023-05-12T18:47:53.716Z,13.8462
2023-05-12T18:48:55.646Z,13.4615
2023-05-12T18:49:57.555Z,17.0769
2023-05-12T18:50:59.463Z,19.5385
2023-05-12T18:52:01.399Z,18.6154
2023-05-12T18:53:03.320Z,16.7692
2023-05-12T18:54:05.235Z,18.0000
2023-05-12T18:55:07.176Z,17.8462
2023-05-12T18:56:09.064Z,18.5385
2023-05-12T18:57:10.993Z,20.2308
2023-05-12T18:58:12.898Z,18.6923
2023-05-12T18:59:14.838Z,19.2308
2023-05-12T19:00:16.758Z,24.8333
2023-05-12T19:01:18.738Z,21.0000
2023-05-12T19:02:20.600Z,20.3077
2023-05-12T19:03:22.503Z,21.7692
2023-05-12T19:04:24.431Z,19.4615
2023-05-12T19:05:26.387Z,20.1538
2023-05-12T19:06:28.281Z,18.8462
2023-05-12T19:07:30.216Z,17.6154
2023-05-12T19:08:32.103Z,16.0769
2023-05-12T19:09:34.027Z,18.5385
2023-05-12T19:10:38.611Z,20.6154
2023-05-12T19:11:37.874Z,23.0769
2023-05-12T19:12:39.805Z,24.3077
2023-05-12T19:13:41.718Z,23.3846
2023-05-12T19:14:43.629Z,23.9231
2023-05-12T19:15:45.596Z,25.9231
2023-05-12T19:16:47.544Z,19.5385
2023-05-12T19:17:49.420Z,21.0769
2023-05-12T19:18:51.400Z,20.6923
2023-05-12T19:19:53.235Z,24.0000
2023-05-12T19:20:55.139Z,22.2308
2023-05-12T19:21:57.060Z,23.3077
2023-05-12T19:22:58.998Z,24.7692
2023-05-12T19:24:00.905Z,26.1538
2023-05-12T19:25:02.825Z,24.9231
2023-05-12T19:26:04.724Z,21.4615
2023-05-12T19:27:06.640Z,28.0000
2023-05-12T19:28:08.607Z,25.5385
2023-05-12T19:29:10.514Z,25.8462
2023-05-12T19:30:12.415Z,26.8462
2023-05-12T19:31:14.323Z,23.8462
2023-05-12T19:32:16.339Z,27.9231
2023-05-12T19:33:18.199Z,29.0769
2023-05-12T19:34:20.100Z,26.3077
2023-05-12T19:35:22.205Z,22.6923
2023-05-12T19:36:23.925Z,25.4615
2023-05-12T19:37:25.849Z,28.6154
2023-05-12T19:38:27.741Z,24.4615
2023-05-12T19:39:29.677Z,24.3077
2023-05-12T19:40:31.711Z,27.7692
2023-05-12T19:41:33.510Z,29.0769
2023-05-12T19:42:35.414Z,28.0769
2023-05-12T19:43:37.337Z,28.0769
2023-05-12T19:44:39.285Z,24.4615
2023-05-12T19:45:41.200Z,26.4615
2023-05-12T19:46:43.103Z,28.0769
2023-05-12T19:47:45.020Z,26.8462
2023-05-12T19:48:46.922Z,28.2308
2023-05-12T19:49:48.854Z,33.2308
2023-05-12T19:50:50.786Z,32.3846
2023-05-12T19:51:52.689Z,33.0769
2023-05-12T19:52:54.606Z,28.3077
2023-05-12T19:53:56.605Z,30.1538
2023-05-12T19:54:58.511Z,32.3077
2023-05-12T19:56:00.456Z,29.6154
2023-05-12T19:57:02.385Z,30.8462
2023-05-12T19:58:04.291Z,30.9231
2023-05-12T19:59:06.207Z,32.4615
2023-05-12T20:00:08.120Z,31.3077
2023-05-12T20:01:10.054Z,32.4615
2023-05-12T20:02:11.970Z,35.0769
2023-05-12T20:03:13.918Z,34.2308
2023-05-12T20:04:15.790Z,31.2308
2023-05-12T20:05:17.765Z,33.6154
2023-05-12T20:06:19.621Z,29.6154
2023-05-12T20:07:21.548Z,33.3846
2023-05-12T20:08:23.475Z,34.3077
2023-05-12T20:09:25.372Z,33.9231
2023-05-12T20:10:27.302Z,31.3846
2023-05-12T20:11:29.200Z,34.0769
2023-05-12T20:12:31.140Z,31.0000
2023-05-12T20:13:33.056Z,28.7692
2023-05-12T20:14:34.978Z,28.9231
2023-05-12T20:15:36.874Z,29.3077
2023-05-12T20:16:38.820Z,32.6154
2023-05-12T20:17:40.803Z,30.6154
2023-05-12T20:18:42.676Z,34.1538
2023-05-12T20:19:44.556Z,31.0000
2023-05-12T20:20:46.461Z,27.8462
2023-05-12T20:21:48.382Z,32.3077
2023-05-12T20:22:50.308Z,32.6154
2023-05-12T20:23:52.230Z,30.4615
2023-05-12T20:24:54.149Z,31.5385
2023-05-12T20:25:56.082Z,32.8462
2023-05-12T20:26:57.966Z,30.0000
2023-05-12T20:27:59.919Z,30.3077
2023-05-12T20:29:01.835Z,28.8462
2023-05-12T20:30:03.736Z,28.8462
2023-05-12T20:31:05.778Z,30.2308
2023-05-12T20:32:07.570Z,28.4615
2023-05-12T20:33:09.500Z,28.0769
2023-05-12T20:34:11.405Z,26.7692
2023-05-12T20:35:13.327Z,31.6923
2023-05-12T20:36:15.224Z,31.2308
2023-05-12T20:37:17.156Z,26.6923
2023-05-12T20:38:19.066Z,31.3077
2023-05-12T20:39:20.983Z,33.1538
2023-05-12T20:40:22.903Z,33.1538
2023-05-12T20:41:24.806Z,31.0000
2023-05-12T20:42:26.733Z,29.8462
2023-05-12T20:43:28.650Z,29.1538
2023-05-12T20:44:30.571Z,28.6923
2023-05-12T20:45:32.473Z,29.9231
2023-05-12T20:46:36.437Z,29.6154
2023-05-12T20:47:36.456Z,31.4615
2023-05-12T20:48:38.229Z,33.6154
2023-05-12T20:49:40.149Z,34.1538
2023-05-12T20:50:42.084Z,29.3846
2023-05-12T20:51:43.967Z,27.3846
2023-05-12T20:52:45.904Z,29.7692
2023-05-12T20:53:47.794Z,26.6154
2023-05-12T20:54:49.718Z,29.0000
2023-05-12T20:55:51.633Z,30.5385
2023-05-12T20:56:53.562Z,30.0769
2023-05-12T20:57:55.471Z,25.3846
2023-05-12T20:58:57.377Z,29.7692
2023-05-12T20:59:59.298Z,29.3846
2023-05-12T21:01:01.229Z,29.8462
2023-05-12T21:02:03.207Z,30.1538
2023-05-12T21:03:12.216Z,32.9231
2023-05-12T21:04:16.527Z,29.2143
2023-05-12T21:05:18.620Z,31.7692
2023-05-12T21:06:20.348Z,31.1538
2023-05-12T21:07:22.262Z,29.1538
2023-05-12T21:08:24.159Z,28.4615
2023-05-12T21:09:26.104Z,28.2308
2023-05-12T21:10:28.002Z,29.0000
2023-05-12T21:11:29.905Z,30.3077
2023-05-12T21:12:31.835Z,29.0769
2023-05-12T21:13:33.772Z,33.2308
2023-05-12T21:14:35.670Z,31.6154
2023-05-12T21:15:37.581Z,30.1538
2023-05-12T21:16:39.634Z,31.4615
2023-05-12T21:17:41.566Z,32.8462
2023-05-12T21:18:43.385Z,33.4615
2023-05-12T21:19:45.276Z,31.9231
2023-05-12T21:20:47.240Z,29.7692
2023-05-12T21:21:49.097Z,29.3077
2023-05-12T21:22:51.025Z,32.6154
2023-05-12T21:23:52.996Z,31.9231
2023-05-12T21:24:54.850Z,31.5385
2023-05-12T21:25:56.770Z,29.5385
2023-05-12T21:26:58.704Z,31.6154
2023-05-12T21:28:00.605Z,29.0769
2023-05-12T21:29:02.572Z,31.2308
2023-05-12T21:30:04.457Z,29.3077
2023-05-12T21:31:06.355Z,29.6923
2023-05-12T21:32:08.599Z,28.7692
2023-05-12T21:33:10.286Z,28.5385
2023-05-12T21:34:12.178Z,31.6923
2023-05-12T21:35:14.033Z,30.0000
2023-05-12T21:36:15.965Z,31.3077
2023-05-12T21:37:17.869Z,29.4615
2023-05-12T21:38:19.804Z,31.6154
2023-05-12T21:39:21.728Z,30.0000
2023-05-12T21:40:23.706Z,31.2308
2023-05-12T21:41:25.548Z,32.3846
2023-05-12T21:42:27.496Z,29.0769
2023-05-12T21:43:29.406Z,30.1538
2023-05-12T21:44:31.332Z,28.0769
2023-05-12T21:45:33.244Z,30.9231
2023-05-12T21:46:35.271Z,27.6923
2023-05-12T21:47:37.114Z,24.7692
2023-05-12T21:48:38.984Z,26.4615
2023-05-12T21:49:40.918Z,27.6923
2023-05-12T21:50:42.835Z,28.6154
2023-05-12T21:51:44.751Z,26.0000
2023-05-12T21:52:46.705Z,29.2308
2023-05-12T21:53:48.593Z,29.2308
2023-05-12T21:54:50.525Z,30.7692
2023-05-12T21:55:52.428Z,28.6923
2023-05-12T21:56:54.346Z,27.5385
2023-05-12T21:57:56.253Z,27.6923
2023-05-12T21:58:58.218Z,26.7692
2023-05-12T22:00:00.126Z,29.2308
2023-05-12T22:01:02.021Z,24.5385
2023-05-12T22:02:03.948Z,27.3846
2023-05-12T22:03:05.896Z,26.2308
2023-05-12T22:04:07.817Z,30.3846
2023-05-12T22:05:09.758Z,27.6154
2023-05-12T22:06:11.623Z,28.6154
2023-05-12T22:07:13.517Z,29.3077
2023-05-12T22:08:15.447Z,30.1538
2023-05-12T22:09:17.361Z,30.0000
2023-05-12T22:10:19.452Z,27.1538
2023-05-12T22:11:21.229Z,27.1538
2023-05-12T22:12:23.116Z,28.9231
2023-05-12T22:13:25.023Z,32.3077
2023-05-12T22:14:26.936Z,31.1538
2023-05-12T22:15:28.870Z,29.6923
2023-05-12T22:16:40.680Z,29.6154
2023-05-12T22:17:32.750Z,30.6667
2023-05-12T22:18:34.679Z,29.0769
2023-05-12T22:19:36.536Z,32.5385
2023-05-12T22:20:38.453Z,31.0000
2023-05-12T22:21:40.379Z,33.1538
2023-05-12T22:22:42.339Z,33.0769
2023-05-12T22:23:44.220Z,32.4615
2023-05-12T22:24:46.134Z,33.4615
2023-05-12T22:25:48.032Z,32.2308
2023-05-12T22:26:49.970Z,33.0769
2023-05-12T22:27:51.871Z,37.3077
2023-05-12T22:28:53.836Z,31.0769
2023-05-12T22:29:55.721Z,34.5385
2023-05-12T22:30:57.665Z,34.6923
2023-05-12T22:31:59.551Z,33.7692
2023-05-12T22:33:01.584Z,31.2308
2023-05-12T22:34:03.384Z,33.5385
2023-05-12T22:35:05.339Z,34.0769
2023-05-12T22:36:07.243Z,34.3846
2023-05-12T22:37:09.146Z,33.5385
2023-05-12T22:38:11.094Z,32.8462
2023-05-12T22:39:13.001Z,34.8462
2023-05-12T22:40:14.905Z,37.2308
2023-05-12T22:41:16.825Z,30.9231
2023-05-12T22:42:18.763Z,32.4615
2023-05-12T22:43:20.659Z,33.6154
2023-05-12T22:44:22.596Z,34.4615
2023-05-12T22:45:24.520Z,31.5385
2023-05-12T22:46:26.480Z,36.6923
2023-05-12T22:47:28.348Z,35.1538
2023-05-12T22:48:32.099Z,33.7692
2023-05-12T22:49:32.191Z,32.7500
2023-05-12T22:50:34.098Z,32.9231
2023-05-12T22:51:36.025Z,33.9231
2023-05-12T22:52:37.944Z,32.6154
2023-05-12T22:53:39.864Z,33.3077
2023-05-12T22:54:41.781Z,33.3077
2023-05-12T22:55:43.701Z,35.4615
2023-05-12T22:56:45.629Z,35.5385
2023-05-12T22:57:47.538Z,32.3077
2023-05-12T22:58:49.470Z,31.3846
2023-05-12T22:59:51.371Z,28.3077
2023-05-12T23:00:53.330Z,35.0000
2023-05-12T23:01:55.221Z,36.5385
2023-05-12T23:02:57.191Z,33.8462
2023-05-12T23:03:59.068Z,35.1538
2023-05-12T23:05:00.963Z,37.0000
2023-05-12T23:06:02.908Z,34.8462
2023-05-12T23:07:05.903Z,33.2308
2023-05-12T23:08:06.764Z,38.6923
2023-05-12T23:09:08.635Z,33.6154
2023-05-12T23:10:10.578Z,33.3077
2023-05-12T23:11:12.491Z,29.4615
2023-05-12T23:12:14.404Z,30.3846
2023-05-12T23:13:16.370Z,29.3846
2023-05-12T23:14:18.288Z,32.7692
2023-05-12T23:15:20.171Z,31.2308
2023-05-12T23:16:22.093Z,32.6154
2023-05-12T23:17:23.994Z,31.4615
2023-05-12T23:18:25.946Z,34.0769
2023-05-12T23:19:27.837Z,35.6923
2023-05-12T23:20:29.752Z,37.6154
2023-05-12T23:21:31.694Z,38.8462
2023-05-12T23:22:33.605Z,38.6923
2023-05-12T23:23:35.520Z,36.6923
2023-05-12T23:24:37.444Z,36.7692
2023-05-12T23:25:39.371Z,33.6154
2023-05-12T23:26:41.262Z,33.5385
2023-05-12T23:27:43.199Z,32.9231
2023-05-12T23:28:45.473Z,33.0769
2023-05-12T23:29:47.024Z,36.1538
2023-05-12T23:30:48.949Z,41.3077
2023-05-12T23:31:50.930Z,37.6154
2023-05-12T23:32:52.950Z,34.5385
2023-05-12T23:33:54.782Z,37.0769
2023-05-12T23:34:56.632Z,39.9231
2023-05-12T23:35:58.579Z,36.3846
2023-05-12T23:37:00.462Z,37.7692
2023-05-12T23:38:02.398Z,36.1538
2023-05-12T23:39:04.312Z,36.9231
2023-05-12T23:40:06.213Z,35.8462
2023-05-12T23:41:08.142Z,34.5385
2023-05-12T23:42:10.066Z,36.6154
2023-05-12T23:43:11.969Z,36.8462
2023-05-12T23:44:13.898Z,38.2308
2023-05-12T23:45:15.844Z,37.7692
2023-05-12T23:46:17.786Z,39.7692
2023-05-12T23:47:19.650Z,41.3846
2023-05-12T23:48:21.580Z,42.7692
2023-05-12T23:49:23.529Z,38.3846
2023-05-12T23:50:25.412Z,41.1538
2023-05-12T23:51:27.348Z,36.1538
2023-05-12T23:52:29.257Z,37.4615
2023-05-12T23:53:31.209Z,37.6154
2023-05-12T23:54:33.107Z,35.7692
2023-05-12T23:55:35.017Z,39.1538
2023-05-12T23:56:36.973Z,40.3077
2023-05-12T23:57:38.933Z,43.0769
2023-05-12T23:58:40.854Z,41.3077
2023-05-12T23:59:42.754Z,39.3077
